Time;durP1;ratioP1;P1;durP2;ratioP2;P2;SDS_P1;SDS_P2;PMS_P1;PMS_P2;Temp;Humidity;BMP_temperature;BMP_pressure;BME280_temperature;BME280_humidity;BME280_pressure;Samples;Min_cycle;Max_cycle;Signal;HPM_P1;HPM_P2
2021/08/23 00:01:18;;;;;;;15.52;6.00;;;13.60;99.90;;;;;;5954708;24;20036;-90
2021/08/23 00:04:16;;;;;;;6.75;4.80;;;13.70;99.90;;;;;;5956806;24;20028;-91
2021/08/23 00:07:21;;;;;;;10.68;5.32;;;13.70;99.90;;;;;;5937667;24;20039;-93
2021/08/23 00:10:37;;;;;;;9.20;4.75;;;13.80;99.90;;;;;;5873591;24;20037;-89
2021/08/23 00:13:32;;;;;;;9.50;5.60;;;13.80;99.90;;;;;;5983699;24;20072;-89
2021/08/23 00:16:57;;;;;;;8.65;5.20;;;13.80;99.90;;;;;;6038467;23;20055;-91
2021/08/23 00:19:45;;;;;;;8.73;5.05;;;13.80;99.90;;;;;;6014332;23;20038;-92
2021/08/23 00:22:35;;;;;;;8.45;5.10;;;13.80;99.90;;;;;;6020715;23;20102;-91
2021/08/23 00:25:36;;;;;;;6.22;4.80;;;13.80;99.90;;;;;;6052927;23;20106;-91
2021/08/23 00:29:18;;;;;;;7.65;4.85;;;13.80;99.90;;;;;;6170750;23;20099;-93
2021/08/23 00:33:04;;;;;;;6.50;4.93;;;13.80;99.90;;;;;;6207164;23;20093;-90
2021/08/23 00:36:48;;;;;;;;;;;;;;;;;;;;;
2021/08/23 00:41:04;;;;;;;;;;;;;;;;;;;;;
2021/08/23 00:44:16;;;;;;;11.10;5.10;;;13.70;99.90;;;;;;5849022;24;20756;-91
2021/08/23 00:47:37;;;;;;;;;;;;;;;;;;;;;
2021/08/23 00:51:37;;;;;;;8.45;5.80;;;13.60;99.90;;;;;;5795009;24;20041;-92
2021/08/23 00:54:36;;;;;;;11.00;6.00;;;13.50;99.90;;;;;;5856823;24;20022;-91
2021/08/23 00:57:33;;;;;;;;;;;;;;;;;;;;;
2021/08/23 01:00:35;;;;;;;11.38;6.15;;;13.50;99.90;;;;;;5876331;24;19932;-91
2021/08/23 01:03:47;;;;;;;;;;;;;;;;;;;;;
2021/08/23 01:07:43;;;;;;;;;;;;;;;;;;;;;
2021/08/23 01:11:23;;;;;;;;;;;;;;;;;;;;;
2021/08/23 01:36:03;;;;;;;8.57;6.97;;;13.50;99.90;;;;;;6127584;22;1367176;-92
2021/08/23 01:39:05;;;;;;;11.55;7.38;;;13.40;99.90;;;;;;6169692;23;20393;-92
2021/08/23 01:42:36;;;;;;;8.75;7.03;;;13.50;99.90;;;;;;6035182;23;20027;-94
2021/08/23 01:45:48;;;;;;;13.43;6.38;;;13.40;99.90;;;;;;6051382;23;20023;-91
2021/08/23 01:56:31;;;;;;;10.27;6.22;;;13.50;99.90;;;;;;5900687;24;20621;-92
2021/08/23 01:59:23;;;;;;;10.05;6.65;;;13.40;99.90;;;;;;5937320;24;20134;-92
2021/08/23 02:02:34;;;;;;;23.20;7.00;;;13.50;99.90;;;;;;5980518;24;20039;-92
2021/08/23 02:05:41;;;;;;;8.45;6.65;;;13.50;99.90;;;;;;5997285;24;20048;-92
2021/08/23 02:08:44;;;;;;;10.65;5.97;;;13.40;99.90;;;;;;6070104;23;20058;-91
2021/08/23 02:12:01;;;;;;;13.70;6.88;;;13.40;99.90;;;;;;6096042;23;20018;-90
2021/08/23 02:15:28;;;;;;;17.25;10.95;;;13.40;99.90;;;;;;6078419;23;20088;-92
2021/08/23 02:19:29;;;;;;;;;;;;;;;;;;;;;
2021/08/23 02:22:42;;;;;;;12.25;6.32;;;13.40;99.90;;;;;;5913281;24;20083;-95
2021/08/23 02:26:03;;;;;;;;;;;;;;;;;;;;;
2021/08/23 02:28:59;;;;;;;13.18;6.15;;;13.40;99.90;;;;;;5980892;24;20054;-92
2021/08/23 02:31:53;;;;;;;10.02;5.85;;;13.40;99.90;;;;;;5973183;24;20035;-92
2021/08/23 02:34:48;;;;;;;9.27;5.22;;;13.50;99.90;;;;;;6101206;23;20148;-92
2021/08/23 02:38:06;;;;;;;11.90;5.85;;;13.40;99.90;;;;;;6109338;23;20030;-91
2021/08/23 02:41:20;;;;;;;11.27;5.57;;;13.40;99.90;;;;;;6124486;23;20026;-92
2021/08/23 02:44:16;;;;;;;6.93;5.22;;;13.50;99.90;;;;;;6112543;23;20113;-92
2021/08/23 03:04:05;;;;;;;9.82;5.00;;;13.50;99.90;;;;;;5763473;24;20023;-92
2021/08/23 03:07:11;;;;;;;10.95;5.35;;;13.50;99.90;;;;;;5825424;24;20105;-90
2021/08/23 03:10:53;;;;;;;9.95;4.68;;;13.50;99.90;;;;;;5997862;23;20096;-93
2021/08/23 03:14:03;;;;;;;7.03;4.97;;;13.50;99.90;;;;;;5997359;23;20491;-94
2021/08/23 03:17:15;;;;;;;7.13;5.20;;;13.60;99.90;;;;;;6015292;23;20189;-91
2021/08/23 03:20:28;;;;;;;8.18;4.43;;;13.50;99.90;;;;;;5890614;24;20049;-93
2021/08/23 03:23:40;;;;;;;5.80;4.57;;;13.50;99.90;;;;;;6023925;23;20031;-91
2021/08/23 03:26:57;;;;;;;6.60;4.57;;;13.50;99.90;;;;;;6023397;23;20031;-94
2021/08/23 03:29:50;;;;;;;9.98;5.13;;;13.50;99.90;;;;;;6046407;23;20441;-93
2021/08/23 03:32:44;;;;;;;;;;;13.40;99.90;;;;;;6026350;23;20029;-92
2021/08/23 03:36:17;;;;;;;10.65;5.13;;;13.40;99.90;;;;;;6043366;23;19988;-93
2021/08/23 03:39:42;;;;;;;10.95;5.80;;;13.30;99.90;;;;;;6034551;23;20050;-94
2021/08/23 03:42:45;;;;;;;10.02;5.60;;;13.30;99.90;;;;;;6050835;23;20047;-94
2021/08/23 03:45:47;;;;;;;9.88;5.50;;;13.20;99.90;;;;;;6035295;23;20051;-92
2021/08/23 03:49:03;;;;;;;10.10;5.82;;;13.20;99.90;;;;;;6053730;23;20051;-89
2021/08/23 03:51:51;;;;;;;8.85;5.90;;;13.20;99.90;;;;;;6054026;23;20035;-89
2021/08/23 03:54:54;;;;;;;8.05;5.68;;;13.20;99.90;;;;;;6045460;23;20062;-88
2021/08/23 03:57:42;;;;;;;;;;;13.20;99.90;;;;;;6045389;23;20051;-89
2021/08/23 04:01:03;;;;;;;12.77;6.07;;;13.20;99.90;;;;;;6027603;23;20296;-92
2021/08/23 04:04:40;;;;;;;8.20;5.32;;;13.20;99.90;;;;;;6043883;23;20031;-93
2021/08/23 04:07:53;;;;;;;11.38;5.70;;;13.20;99.90;;;;;;5951794;23;20124;-91
2021/08/23 04:11:05;;;;;;;9.93;5.72;;;13.30;99.90;;;;;;6036658;23;20034;-91
2021/08/23 04:14:02;;;;;;;13.95;6.18;;;13.30;99.90;;;;;;6052063;23;20146;-93
2021/08/23 04:17:23;;;;;;;;;;;;;;;;;;;;;
2021/08/23 04:20:49;;;;;;;8.38;5.07;;;13.30;99.90;;;;;;5988501;24;20028;-93
2021/08/23 04:23:54;;;;;;;13.63;5.70;;;13.30;99.90;;;;;;5989697;24;20024;-93
2021/08/23 04:26:42;;;;;;;11.05;5.80;;;13.30;99.90;;;;;;5969749;24;20108;-91
2021/08/23 04:29:34;;;;;;;14.55;6.43;;;13.40;99.90;;;;;;5991577;23;20034;-90
2021/08/23 04:32:42;;;;;;;13.43;5.40;;;13.40;99.90;;;;;;5973393;24;20047;-91
2021/08/23 04:35:39;;;;;;;7.88;5.80;;;13.40;99.90;;;;;;5994779;24;20098;-90
2021/08/23 04:38:37;;;;;;;8.32;5.38;;;13.40;99.90;;;;;;5993889;24;20393;-90
2021/08/23 04:41:49;;;;;;;;;;;13.40;99.90;;;;;;5999219;23;20083;-92
2021/08/23 04:45:28;;;;;;;;;;;;;;;;;;;;;
2021/08/23 04:48:49;;;;;;;11.77;5.30;;;13.50;99.90;;;;;;6175349;23;20025;-94
2021/08/23 04:51:59;;;;;;;6.72;5.03;;;13.50;99.90;;;;;;6197694;23;20081;-92
2021/08/23 04:55:37;;;;;;;7.63;5.43;;;13.50;99.90;;;;;;6178779;23;20043;-92
2021/08/23 04:58:54;;;;;;;6.63;5.40;;;13.50;99.90;;;;;;6079244;23;20042;-93
2021/08/23 05:09:09;;;;;;;8.88;5.60;;;13.50;99.90;;;;;;5987242;24;20032;-91
2021/08/23 05:12:25;;;;;;;10.57;5.57;;;13.50;99.90;;;;;;5994301;24;20072;-91
2021/08/23 05:16:02;;;;;;;6.80;5.00;;;13.60;99.90;;;;;;5913308;24;20037;-92
2021/08/23 05:19:23;;;;;;;7.95;5.03;;;13.60;99.90;;;;;;5834604;24;20087;-92
2021/08/23 05:23:03;;;;;;;;;;;;;;;;;;;;;
2021/08/23 05:26:27;;;;;;;11.05;4.75;;;13.70;99.90;;;;;;5778445;24;20031;-92
2021/08/23 05:29:24;;;;;;;8.27;5.13;;;13.70;99.90;;;;;;5811684;24;20010;-91
2021/08/23 05:54:32;;;;;;;8.32;5.20;;;14.10;99.90;;;;;;6075120;23;20093;-92
2021/08/23 05:57:24;;;;;;;;;;;14.10;99.90;;;;;;6092421;23;20036;-88
2021/08/23 06:01:05;;;;;;;11.07;4.72;;;14.10;99.90;;;;;;6113484;23;19925;-92
2021/08/23 06:04:51;;;;;;;6.80;4.95;;;14.20;99.90;;;;;;6109209;23;20366;-93
2021/08/23 06:08:09;;;;;;;;;;;;;;;;;;;;;
2021/08/23 06:11:20;;;;;;;;;;;;;;;;;;;;;
2021/08/23 06:15:32;;;;;;;8.40;4.60;;;14.50;99.90;;;;;;6112002;23;20025;-91
2021/08/23 06:18:28;;;;;;;;;;;14.60;99.90;;;;;;6057854;23;20022;-91
2021/08/23 06:21:36;;;;;;;10.10;5.25;;;14.60;99.90;;;;;;6118738;23;19944;-91
2021/08/23 06:24:38;;;;;;;4.68;3.67;;;14.70;99.90;;;;;;6125748;23;20035;-93
2021/08/23 06:27:42;;;;;;;7.82;4.53;;;14.70;99.90;;;;;;6179896;23;20036;-92
2021/08/23 06:30:34;;;;;;;8.13;4.30;;;14.80;99.90;;;;;;6163252;23;20203;-91
2021/08/23 06:33:29;;;;;;;6.25;4.35;;;14.80;99.90;;;;;;6183845;23;20041;-92
2021/08/23 06:36:33;;;;;;;4.93;3.72;;;14.80;99.90;;;;;;6180430;23;20123;-92
2021/08/23 06:40:10;;;;;;;8.75;4.13;;;14.90;99.90;;;;;;6174553;23;20033;-92
2021/08/23 06:43:30;;;;;;;4.65;3.42;;;14.90;99.90;;;;;;6168397;23;20026;-91
2021/08/23 06:46:53;;;;;;;7.88;3.60;;;15.00;99.90;;;;;;6169899;23;20079;-92
2021/08/23 06:50:30;;;;;;;6.35;3.72;;;15.00;99.90;;;;;;6103509;23;20042;-93
2021/08/23 06:53:48;;;;;;;5.32;3.00;;;15.10;99.90;;;;;;6048106;23;20027;-91
2021/08/23 07:05:26;;;;;;;9.20;3.28;;;15.80;99.90;;;;;;5843038;24;20022;-93
2021/08/23 07:09:09;;;;;;;;;;;;;;;;;;;;;
2021/08/23 07:12:31;;;;;;;9.43;3.17;;;16.10;99.90;;;;;;5943158;24;20089;-90
2021/08/23 07:15:35;;;;;;;12.27;3.75;;;16.50;99.90;;;;;;6035118;23;20068;-91
2021/08/23 07:18:59;;;;;;;4.63;2.55;;;16.90;99.90;;;;;;5936004;24;20025;-90
2021/08/23 07:22:15;;;;;;;5.22;2.67;;;17.00;99.90;;;;;;5940755;24;20100;-91
2021/08/23 07:29:12;;;;;;;;;;;;;;;;;;;;;
2021/08/23 07:32:50;;;;;;;8.77;3.20;;;16.80;99.90;;;;;;5829900;24;20312;-92
2021/08/23 07:36:49;;;;;;;6.45;3.00;;;16.80;99.90;;;;;;5814424;24;20025;-89
2021/08/23 07:43:43;;;;;;;;;;;;;;;;;;;;;
2021/08/23 07:47:49;;;;;;;7.38;3.08;;;17.50;99.90;;;;;;5825849;24;20023;-93
2021/08/23 08:03:42;;;;;;;6.88;2.83;;;18.30;99.90;;;;;;4967027;28;20054;-91
2021/08/23 08:07:02;;;;;;;;;;;;;;;;;;;;;
2021/08/23 08:10:57;;;;;;;4.38;2.00;;;20.10;99.90;;;;;;4937705;29;20463;-91
2021/08/23 08:13:50;;;;;;;6.90;2.30;;;19.90;99.90;;;;;;4922567;29;20058;-93
2021/08/23 08:21:49;;;;;;;;;;;;;;;;;;;;;
2021/08/23 08:24:37;;;;;;;5.07;2.80;;;19.60;99.90;;;;;;4826235;29;20054;-92
2021/08/23 08:27:23;;;;;;;7.07;2.60;;;19.60;99.90;;;;;;4836378;29;20053;-91
2021/08/23 08:30:54;;;;;;;;;;;;;;;;;;;;;
2021/08/23 08:43:00;;;;;;;6.47;2.58;;;20.70;99.90;;;;;;4956143;28;20136;-91
2021/08/23 08:51:03;;;;;;;4.22;2.28;;;20.60;99.90;;;;;;4871312;29;20404;-92
2021/08/23 08:54:19;;;;;;;6.95;2.40;;;21.10;99.90;;;;;;4958647;28;20048;-91
2021/08/23 08:57:29;;;;;;;4.30;1.95;;;20.90;99.90;;;;;;4962754;29;20043;-90
2021/08/23 09:01:21;;;;;;;;;;;;;;;;;;;;;
2021/08/23 09:09:43;;;;;;;4.45;2.40;;;22.10;99.90;;;;;;4873456;29;20140;-92
2021/08/23 09:13:11;;;;;;;4.35;2.40;;;21.20;99.90;;;;;;4925170;29;20080;-92
2021/08/23 10:21:57;;;;;;;4.63;3.40;;;16.70;99.90;;;;;;5118464;22;27592956;-90
2021/08/23 10:24:49;;;;;;;;;;;17.20;99.90;;;;;;6350530;22;20023;-95
2021/08/23 10:32:24;;;;;;;;;;;;;;;;;;;;;
2021/08/23 10:36:11;;;;;;;;;;;;;;;;;;;;;
2021/08/23 10:39:04;;;;;;;3.83;2.22;;;19.50;99.90;;;;;;6253236;23;20486;-92
2021/08/23 10:42:47;;;;;;;5.88;2.33;;;20.40;99.90;;;;;;6262349;23;20150;-92
2021/08/23 10:50:19;;;;;;;;;;;;;;;;;;;;;
2021/08/23 10:53:36;;;;;;;5.53;2.03;;;21.10;99.90;;;;;;6164016;23;20033;-92
2021/08/23 10:56:39;;;;;;;3.60;2.20;;;22.10;99.90;;;;;;6161645;23;20056;-90
2021/08/23 10:59:40;;;;;;;5.90;2.30;;;23.50;99.90;;;;;;6251576;23;20024;-92
2021/08/23 11:02:39;;;;;;;5.03;2.03;;;24.30;99.90;;;;;;6259804;23;20084;-92
2021/08/23 11:05:40;;;;;;;;;;;;;;;;;;;;;
2021/08/23 11:08:28;;;;;;;4.35;1.85;;;26.70;90.60;;;;;;6256024;23;20024;-90
2021/08/23 11:11:36;;;;;;;4.45;1.60;;;27.20;89.00;;;;;;6256006;23;20051;-90
2021/08/23 11:15:13;;;;;;;;;;;;;;;;;;;;;
2021/08/23 11:17:51;;;;;;;2.67;1.50;;;28.30;78.60;;;;;;6317009;22;20099;-91
2021/08/23 11:21:18;;;;;;;;;;;;;;;;;;;;;
2021/08/23 11:24:37;;;;;;;2.35;1.75;;;27.90;70.90;;;;;;6203965;23;20029;-91
2021/08/23 11:27:24;;;;;;;4.68;2.05;;;26.00;78.10;;;;;;6214640;23;20028;-91
2021/08/23 11:30:13;;;;;;;5.45;2.47;;;24.70;84.10;;;;;;6215387;23;20047;-92
2021/08/23 11:33:02;;;;;;;6.53;2.13;;;23.80;90.30;;;;;;6215445;23;20032;-90
2021/08/23 11:35:49;;;;;;;6.60;2.17;;;23.10;91.70;;;;;;6217629;23;20067;-91
2021/08/23 11:38:38;;;;;;;5.20;2.22;;;22.80;96.00;;;;;;6217129;23;20028;-91
2021/08/23 11:41:26;;;;;;;3.88;2.25;;;22.60;96.80;;;;;;6241267;22;20139;-91
2021/08/23 11:44:18;;;;;;;5.15;1.90;;;22.40;98.70;;;;;;6320260;22;20035;-90
2021/08/23 11:47:08;;;;;;;3.40;2.20;;;22.10;98.50;;;;;;6343974;22;20027;-90
2021/08/23 11:50:16;;;;;;;4.88;2.20;;;22.00;99.90;;;;;;6198496;23;20099;-90
2021/08/23 11:53:08;;;;;;;1.98;1.77;;;22.30;96.90;;;;;;6195322;23;20025;-93
2021/08/23 11:56:07;;;;;;;2.90;2.00;;;24.50;92.40;;;;;;6197153;23;20025;-91
2021/08/23 11:58:55;;;;;;;3.80;2.13;;;25.30;90.30;;;;;;6201053;23;20024;-92
2021/08/23 12:01:47;;;;;;;5.43;2.83;;;24.60;92.90;;;;;;6222778;23;20147;-89
2021/08/23 12:04:35;;;;;;;24.48;4.93;;;23.50;97.60;;;;;;6222228;23;20076;-90
2021/08/23 12:42:20;;;;;;;;;;;;;;;;;;;;;
2021/08/23 12:45:36;;;;;;;6.53;3.50;;;17.40;99.90;;;;;;5968196;24;20012;-90
2021/08/23 12:49:49;;;;;;;;;;;;;;;;;;;;;
2021/08/23 12:53:43;;;;;;;;;;;;;;;;;;;;;
2021/08/23 12:56:53;;;;;;;4.90;3.25;;;19.00;99.90;;;;;;6188769;23;20036;-90
2021/08/23 13:00:17;;;;;;;;;;;;;;;;;;;;;
2021/08/23 13:03:20;;;;;;;4.05;3.67;;;20.30;99.90;;;;;;6220241;23;20055;-90
2021/08/23 13:06:13;;;;;;;6.20;4.05;;;20.00;99.90;;;;;;6216908;23;20032;-92
2021/08/23 13:09:03;;;;;;;5.65;4.03;;;19.50;99.90;;;;;;6195793;23;20066;-89
2021/08/23 13:11:51;;;;;;;5.63;4.20;;;19.40;99.90;;;;;;6196420;23;20024;-90
2021/08/23 13:14:38;;;;;;;6.05;3.97;;;19.30;99.90;;;;;;6196334;23;20311;-90
2021/08/23 13:17:30;;;;;;;6.35;4.05;;;19.30;99.90;;;;;;6215513;23;20024;-92
2021/08/23 13:20:19;;;;;;;7.80;3.80;;;19.60;99.90;;;;;;6197560;23;20024;-92
2021/08/23 13:23:11;;;;;;;7.47;3.72;;;19.80;99.90;;;;;;6290169;22;20478;-92
2021/08/23 13:25:59;;;;;;;4.20;3.38;;;20.20;99.90;;;;;;6311453;22;20023;-90
2021/08/23 13:28:46;;;;;;;3.92;2.90;;;22.00;99.90;;;;;;6333168;22;20029;-91
2021/08/23 13:31:34;;;;;;;7.47;2.88;;;23.40;99.90;;;;;;6318957;22;20023;-90
2021/08/23 13:34:22;;;;;;;3.55;2.72;;;24.70;99.90;;;;;;6339968;22;20018;-92
2021/08/23 13:37:20;;;;;;;4.97;3.17;;;26.60;99.90;;;;;;6320362;22;20061;-91
2021/08/23 13:40:08;;;;;;;3.75;3.33;;;26.60;97.20;;;;;;6343800;22;20097;-89
2021/08/23 13:42:55;;;;;;;3.70;3.20;;;24.60;99.90;;;;;;6349569;22;20031;-89
2021/08/23 13:45:45;;;;;;;3.83;2.70;;;23.60;99.90;;;;;;6355160;22;20373;-89
2021/08/23 13:48:32;;;;;;;6.38;2.92;;;22.90;99.90;;;;;;6329776;22;20026;-88
2021/08/23 13:51:22;;;;;;;3.22;2.60;;;22.50;99.90;;;;;;6360716;22;20049;-90
2021/08/23 13:54:11;;;;;;;5.30;3.20;;;22.30;99.90;;;;;;6360807;22;20014;-92
2021/08/23 13:56:58;;;;;;;3.28;2.97;;;22.50;99.90;;;;;;6344370;22;20088;-88
2021/08/23 13:59:48;;;;;;;3.72;2.88;;;23.60;99.90;;;;;;6350479;22;20088;-91
2021/08/23 14:02:39;;;;;;;4.88;3.10;;;23.80;99.90;;;;;;6345102;22;20071;-91
2021/08/23 14:05:26;;;;;;;3.97;2.80;;;23.40;99.90;;;;;;6341312;22;20023;-88
2021/08/23 14:08:15;;;;;;;4.53;3.42;;;22.80;99.90;;;;;;6342219;22;20432;-90
2021/08/23 14:11:06;;;;;;;4.40;2.33;;;22.30;99.90;;;;;;6341465;22;20019;-89
2021/08/23 14:13:57;;;;;;;4.18;2.60;;;21.60;99.90;;;;;;6338123;22;20029;-90
2021/08/23 14:16:47;;;;;;;6.63;2.72;;;21.10;99.90;;;;;;6335854;22;20382;-91
2021/08/23 14:19:37;;;;;;;4.55;2.63;;;21.00;99.90;;;;;;6339230;22;20030;-88
2021/08/23 14:22:27;;;;;;;4.53;2.67;;;20.90;99.90;;;;;;6336472;22;20027;-91
2021/08/23 14:25:19;;;;;;;3.78;3.00;;;20.50;99.90;;;;;;6339065;22;20027;-91
2021/08/23 14:28:10;;;;;;;5.38;3.15;;;20.20;99.90;;;;;;6338907;22;20029;-90
2021/08/23 14:30:58;;;;;;;4.70;3.05;;;20.10;99.90;;;;;;6315806;22;20019;-89
2021/08/23 14:33:45;;;;;;;4.03;2.45;;;20.90;99.90;;;;;;6344424;22;20294;-89
2021/08/23 14:36:32;;;;;;;5.10;2.50;;;21.80;99.90;;;;;;6336896;22;20019;-90
2021/08/23 14:39:20;;;;;;;5.50;2.30;;;22.30;99.90;;;;;;6338052;22;20042;-90
2021/08/23 14:42:09;;;;;;;3.83;2.55;;;22.40;99.90;;;;;;6315727;22;20027;-89
2021/08/23 14:45:01;;;;;;;4.65;2.22;;;22.30;99.90;;;;;;6336651;22;20027;-91
2021/08/23 14:47:54;;;;;;;3.58;2.05;;;22.40;99.90;;;;;;6337387;22;20033;-91
2021/08/23 14:50:42;;;;;;;3.00;2.47;;;23.00;99.90;;;;;;6337669;22;20060;-88
2021/08/23 14:53:35;;;;;;;4.50;2.55;;;24.00;99.90;;;;;;6339387;22;20022;-89
2021/08/23 14:56:22;;;;;;;4.68;2.90;;;24.30;99.90;;;;;;6339971;22;20049;-93
2021/08/23 14:59:23;;;;;;;6.07;2.63;;;23.40;99.90;;;;;;6338456;22;20034;-90
2021/08/23 15:02:11;;;;;;;5.00;2.90;;;23.00;99.90;;;;;;6338942;22;20038;-89
2021/08/23 15:04:58;;;;;;;2.47;2.28;;;22.40;99.90;;;;;;6339778;22;20034;-90
2021/08/23 15:07:49;;;;;;;5.30;2.40;;;21.90;99.90;;;;;;6316610;22;20322;-88
2021/08/23 15:10:37;;;;;;;5.03;2.70;;;21.80;99.90;;;;;;6338770;22;20501;-89
2021/08/23 15:13:27;;;;;;;3.40;2.22;;;21.50;99.90;;;;;;6340848;22;20022;-92
2021/08/23 15:16:14;;;;;;;1.92;1.80;;;21.20;99.90;;;;;;6316799;22;20023;-91
2021/08/23 15:19:14;;;;;;;2.97;1.88;;;21.80;99.90;;;;;;6316890;22;20030;-88
2021/08/23 15:22:02;;;;;;;1.83;1.55;;;23.40;99.90;;;;;;6338969;22;20039;-90
2021/08/23 15:24:52;;;;;;;2.28;1.60;;;25.00;99.90;;;;;;6344082;22;20030;-91
2021/08/23 15:27:45;;;;;;;4.80;1.70;;;25.20;95.40;;;;;;6318943;22;20026;-91
2021/08/23 15:30:35;;;;;;;2.30;1.95;;;23.90;99.30;;;;;;6343870;22;20027;-91
2021/08/23 15:33:23;;;;;;;2.10;1.52;;;23.20;99.90;;;;;;6321158;22;20105;-89
2021/08/23 15:36:13;;;;;;;5.50;2.00;;;23.90;99.10;;;;;;6343049;22;20118;-92
2021/08/23 15:39:05;;;;;;;3.30;2.05;;;23.30;99.40;;;;;;6322277;22;20019;-90
2021/08/23 15:41:55;;;;;;;2.90;1.70;;;23.20;99.90;;;;;;6345937;22;20030;-91
2021/08/23 15:44:42;;;;;;;3.67;2.13;;;23.50;99.40;;;;;;6345823;22;20102;-92
2021/08/23 15:47:30;;;;;;;4.00;2.00;;;22.70;99.90;;;;;;6341126;22;20091;-91
2021/08/23 15:50:18;;;;;;;3.65;2.40;;;22.10;99.90;;;;;;6345172;22;20065;-92
2021/08/23 15:53:09;;;;;;;3.03;2.40;;;21.80;99.90;;;;;;6344213;22;20047;-91
2021/08/23 15:55:56;;;;;;;3.85;2.63;;;21.60;99.90;;;;;;6343170;22;20080;-93
2021/08/23 15:58:46;;;;;;;3.90;2.70;;;21.10;99.90;;;;;;6324630;22;20429;-91
2021/08/23 16:01:38;;;;;;;3.97;2.60;;;21.10;99.90;;;;;;6346837;22;20094;-93
2021/08/23 16:04:26;;;;;;;3.20;2.90;;;21.10;99.90;;;;;;6343012;22;20115;-92
2021/08/23 16:07:22;;;;;;;3.58;2.80;;;21.40;99.90;;;;;;6323786;22;20101;-92
2021/08/23 16:10:12;;;;;;;3.78;2.28;;;22.60;99.90;;;;;;6343501;22;20076;-91
2021/08/23 16:13:00;;;;;;;4.07;2.15;;;23.60;98.30;;;;;;6323098;22;20030;-91
2021/08/23 16:15:50;;;;;;;5.72;2.60;;;24.40;96.50;;;;;;6322307;22;20267;-93
2021/08/23 16:18:54;;;;;;;2.80;2.30;;;25.10;92.90;;;;;;6329541;22;20106;-92
2021/08/23 16:22:03;;;;;;;3.72;2.42;;;25.10;92.70;;;;;;6345886;22;20433;-91
2021/08/23 16:24:50;;;;;;;5.45;2.47;;;25.10;91.30;;;;;;6347398;22;20027;-91
2021/08/23 16:27:38;;;;;;;4.05;2.20;;;25.00;93.00;;;;;;6346621;22;20322;-92
2021/08/23 16:31:08;;;;;;;4.25;2.45;;;24.50;91.30;;;;;;6347520;22;20086;-90
2021/08/23 16:34:05;;;;;;;3.05;2.10;;;23.60;94.60;;;;;;6327616;22;20042;-91
2021/08/23 16:36:56;;;;;;;2.60;2.35;;;22.60;95.90;;;;;;6323315;22;20029;-91
2021/08/23 16:39:54;;;;;;;2.40;2.20;;;22.30;95.70;;;;;;6344939;22;20022;-91
2021/08/23 16:43:09;;;;;;;3.65;2.80;;;21.90;98.40;;;;;;6345475;22;20023;-91
2021/08/23 16:46:12;;;;;;;3.17;2.50;;;21.60;99.90;;;;;;6325993;22;20088;-91
2021/08/23 16:49:02;;;;;;;3.42;2.67;;;21.20;99.90;;;;;;6345029;22;20031;-92
2021/08/23 16:51:55;;;;;;;2.85;2.50;;;21.10;99.90;;;;;;6324568;22;20023;-91
2021/08/23 16:55:18;;;;;;;5.20;3.13;;;20.80;99.90;;;;;;6340375;22;20029;-92
2021/08/23 16:58:20;;;;;;;6.68;3.60;;;20.30;99.90;;;;;;6344896;22;20033;-90
2021/08/23 17:01:08;;;;;;;6.90;4.50;;;19.50;99.90;;;;;;6322956;22;20031;-91
2021/08/23 17:03:59;;;;;;;5.00;4.38;;;19.00;99.90;;;;;;6348698;22;20029;-90
2021/08/23 17:06:46;;;;;;;6.28;4.93;;;18.60;99.90;;;;;;6346278;22;20271;-91
2021/08/23 17:09:57;;;;;;;7.63;5.68;;;18.20;99.90;;;;;;6346100;22;20143;-93
2021/08/23 17:12:46;;;;;;;6.68;5.72;;;17.90;99.90;;;;;;6304706;22;20091;-91
2021/08/23 17:15:36;;;;;;;7.15;5.80;;;17.60;99.90;;;;;;6324734;22;20048;-90
2021/08/23 17:18:44;;;;;;;;;;;;;;;;;;;;;
2021/08/23 17:21:52;;;;;;;11.32;7.20;;;17.20;99.90;;;;;;6344567;22;20023;-90
2021/08/23 17:24:46;;;;;;;7.72;6.80;;;16.90;99.90;;;;;;6323965;22;20034;-92
2021/08/23 17:27:55;;;;;;;7.90;6.15;;;16.70;99.90;;;;;;6337433;22;20022;-91
2021/08/23 17:30:43;;;;;;;8.18;7.00;;;16.60;99.90;;;;;;6342862;22;20428;-90
2021/08/23 17:33:31;;;;;;;10.23;7.45;;;16.40;99.90;;;;;;6320199;22;20180;-93
2021/08/23 17:36:24;;;;;;;9.50;8.00;;;16.20;99.90;;;;;;6324293;22;20064;-92
2021/08/23 17:39:11;;;;;;;10.82;9.00;;;16.10;99.90;;;;;;6320663;22;20023;-91
2021/08/23 17:42:00;;;;;;;13.98;9.80;;;16.00;99.90;;;;;;6341100;22;20100;-91
2021/08/23 17:44:49;;;;;;;12.13;9.35;;;16.00;99.90;;;;;;6344391;22;20026;-90
2021/08/23 17:47:36;;;;;;;11.35;10.25;;;16.00;99.90;;;;;;6340810;22;20022;-92
2021/08/23 17:50:26;;;;;;;12.38;10.77;;;16.00;99.90;;;;;;6340112;22;20026;-90
2021/08/23 17:53:13;;;;;;;13.75;11.45;;;15.90;99.90;;;;;;6341352;22;20083;-91
2021/08/23 17:56:03;;;;;;;12.48;10.48;;;15.90;99.90;;;;;;6344224;22;20023;-90
2021/08/23 17:58:54;;;;;;;13.02;11.18;;;15.90;99.90;;;;;;6341165;22;20019;-92
2021/08/23 18:01:43;;;;;;;12.18;10.05;;;15.90;99.90;;;;;;6342117;22;20045;-91
2021/08/23 18:04:33;;;;;;;14.20;11.00;;;15.90;99.90;;;;;;6343143;22;20135;-90
2021/08/23 18:07:21;;;;;;;12.43;11.23;;;15.80;99.90;;;;;;6339452;22;20386;-92
2021/08/23 18:10:11;;;;;;;12.77;11.45;;;15.80;99.90;;;;;;6343344;22;20344;-89
2021/08/23 18:12:59;;;;;;;13.65;11.48;;;15.80;99.90;;;;;;6340547;22;20076;-90
2021/08/23 18:15:50;;;;;;;13.77;11.40;;;15.80;99.90;;;;;;6348369;22;20023;-90
2021/08/23 18:18:39;;;;;;;19.83;11.88;;;15.70;99.90;;;;;;6343801;22;20064;-89
2021/08/23 18:21:30;;;;;;;21.58;14.35;;;15.70;99.90;;;;;;6348903;22;20053;-92
2021/08/23 18:24:19;;;;;;;26.17;17.73;;;15.80;99.90;;;;;;6358376;22;20023;-92
